Latest Weather Observations for Mount William

IDV60801

Issued at 5:35 pm EDT Wednesday 22 October 2014 (issued every 30 minutes, with the page automatically refreshed every 10 minutes)

About weather observations | Map of weather stations | Latest weather observations for VIC | Other Formats
Station Details ID: 079103 Name: MOUNT WILLIAM Lat: -37.30 Lon: 142.60 Height: 1150.0 m
Data from the previous 72 hours. | See also: Recent months at Mount William
Date/Time
EDT
Temp
°C
App
Temp
°C
Dew
Point
Rel
Hum
%
Delta-T
°C
Wind Press
QNH
hPa
Press
MSL
hPa
Rain
since 9 am
mm
Dir
 
Spd
km/h
Gust
km/h
Spd
kts
Gust
kts
22/05:30pm 19.9 14.2 6.6 42 7.1 WSW 26 33 14 18 - - 0.0
22/05:00pm 22.8 20.0 7.0 36 8.6 N 11 22 6 12 - - 0.0
22/04:30pm 25.2 22.7 8.2 34 9.6 NNE 11 17 6 9 - - 0.0
22/04:00pm 24.3 21.5 7.0 33 9.5 N 11 20 6 11 - - 0.0
22/03:30pm 24.9 22.0 8.0 34 9.5 N 13 28 7 15 - - 0.0
22/03:00pm 24.4 19.9 6.2 31 9.9 NW 19 30 10 16 - - 0.0
22/02:30pm 24.2 19.2 6.5 32 9.7 NW 22 33 12 18 - - 0.0
22/02:00pm 24.4 19.9 7.1 33 9.5 NNW 20 35 11 19 - - 0.0
22/01:30pm 24.4 19.8 6.6 32 9.7 W 20 30 11 16 - - 0.0
22/01:00pm 24.5 20.6 7.2 33 9.6 WNW 17 32 9 17 - - 0.0
22/12:30pm 23.6 19.5 6.0 32 9.5 NW 17 28 9 15 - - 0.0
22/12:00pm 24.3 19.8 6.1 31 9.9 WNW 19 26 10 14 - - 0.0
22/11:30am 22.2 17.1 4.3 31 9.3 WNW 20 30 11 16 - - 0.0
22/11:00am 21.4 15.1 1.7 27 9.7 NW 24 33 13 18 - - 0.0
22/10:30am 20.6 14.3 1.5 28 9.3 WNW 24 32 13 17 - - 0.0
22/10:00am 20.1 14.3 2.5 31 8.7 WNW 22 33 12 18 - - 0.0
22/09:30am 20.2 14.1 2.5 31 8.8 NW 24 33 13 18 - - 0.0
22/09:00am 19.0 13.6 2.4 33 8.1 WNW 20 30 11 16 - - 0.0
22/08:30am 18.6 12.7 1.6 32 8.2 NNW 22 32 12 17 - - 0.0
22/08:00am 18.0 12.4 1.5 33 7.9 N 20 33 11 18 - - 0.0
22/07:38am 17.8 10.9 2.5 36 7.4 N 28 46 15 25 - - 0.0
22/07:30am 17.7 10.4 2.5 36 7.4 N 30 44 16 24 - - 0.0
22/07:00am 16.9 10.6 3.9 42 6.5 NNW 26 46 14 25 - - 0.0
22/06:33am 16.9 9.4 4.6 44 6.2 N 33 54 18 29 - - 0.0
22/06:30am 16.5 8.7 4.9 46 5.9 N 35 54 19 29 - - 0.0
22/06:22am 16.6 9.3 5.3 47 5.8 N 33 54 18 29 - - 0.0
22/06:00am 16.3 8.6 5.3 48 5.6 N 35 48 19 26 - - 0.0
22/05:30am 15.8 8.6 5.7 51 5.2 N 33 44 18 24 - - 0.0
22/05:00am 15.7 8.6 5.6 51 5.1 N 32 41 17 22 - - 0.0
22/04:30am 15.3 8.1 6.1 54 4.7 N 33 44 18 24 - - 0.0
22/04:14am 15.2 8.1 6.5 56 4.5 N 33 52 18 28 - - 0.0
22/04:00am 15.3 7.4 6.3 55 4.6 N 37 48 20 26 - - 0.0
22/03:30am 15.9 8.2 5.2 49 5.4 N 35 48 19 26 - - 0.0
22/03:00am 16.3 9.0 2.7 40 6.6 N 30 41 16 22 - - 0.0
22/02:30am 16.3 10.2 3.0 41 6.5 N 24 33 13 18 - - 0.0
22/02:00am 16.8 12.2 3.5 41 6.5 NNW 17 26 9 14 - - 0.0
22/01:30am 16.4 11.6 4.8 46 5.8 N 19 22 10 12 - - 0.0
22/01:00am 16.2 11.3 5.2 48 5.6 N 20 26 11 14 - - 0.0
22/12:30am 16.1 10.2 6.0 51 5.2 N 26 33 14 18 - - 0.0
22/12:00am 15.9 9.9 5.2 49 5.4 N 26 32 14 17 - - 0.0
 
Date/Time
EDT
Temp
°C
App
Temp
°C
Dew
Point
Rel
Hum
%
Delta-T
°C
Wind Press
QNH
hPa
Press
MSL
hPa
Rain
since 9 am
mm
Dir
 
Spd
km/h
Gust
km/h
Spd
kts
Gust
kts
21/11:30pm 15.9 9.9 5.2 49 5.4 N 26 32 14 17 - - 0.0
21/11:00pm 16.2 9.6 4.3 45 5.9 N 28 39 15 21 - - 0.0
21/10:30pm 16.5 9.5 3.9 43 6.2 N 30 39 16 21 - - 0.0
21/10:00pm 16.4 9.3 3.8 43 6.2 NNE 30 39 16 21 - - 0.0
21/09:30pm 16.9 10.2 3.6 41 6.6 NNE 28 35 15 19 - - 0.0
21/09:00pm 17.2 10.8 3.1 39 6.9 NNE 26 33 14 18 - - 0.0
21/08:30pm 17.6 12.3 2.8 37 7.2 NNE 20 26 11 14 - - 0.0
21/08:00pm 18.0 13.1 2.3 35 7.6 N 17 22 9 12 - - 0.0
21/07:30pm 17.9 13.2 3.4 38 7.2 N 17 20 9 11 - - 0.0
21/07:00pm 18.5 15.2 4.3 39 7.2 N 11 17 6 9 - - 0.0
21/06:30pm 19.7 17.0 5.4 39 7.4 N 9 13 5 7 - - 0.0
21/06:00pm 20.8 19.1 6.0 38 7.8 N 4 7 2 4 - - 0.0
21/05:30pm 20.9 18.6 4.9 35 8.3 N 6 9 3 5 - - 0.0
21/05:00pm 21.0 18.6 4.1 33 8.7 N 6 11 3 6 - - 0.0
21/04:30pm 21.2 19.1 6.7 39 7.8 NNW 7 13 4 7 - - 0.0
21/04:00pm 21.7 19.8 7.5 40 7.8 N 7 11 4 6 - - 0.0
21/03:30pm 20.1 18.3 7.1 43 7.0 NNW 6 11 3 6 - - 0.0
21/03:00pm 19.9 18.5 7.3 44 6.8 N 4 9 2 5 - - 0.0
21/02:30pm 19.5 17.6 6.6 43 6.9 N 6 11 3 6 - - 0.0
21/02:00pm 19.7 18.3 8.7 49 6.1 N 6 9 3 5 - - 0.0
21/01:30pm 18.5 16.6 7.6 49 5.9 WSW 7 13 4 7 - - 0.0
21/01:00pm 18.5 16.0 5.0 41 6.9 WSW 7 9 4 5 - - 0.0
21/12:30pm 18.2 15.6 6.1 45 6.3 WSW 9 13 5 7 - - 0.0
21/12:00pm 19.7 16.3 4.2 36 7.9 W 11 17 6 9 - - 0.0
21/11:30am 20.5 16.1 -5.4 17 11.0 WSW 9 15 5 8 - - 0.0
21/11:00am 20.4 15.4 -4.0 19 10.6 WNW 13 19 7 10 - - 0.0
21/10:30am 19.9 13.7 -9.3 13 11.4 NW 17 20 9 11 - - 0.0
21/10:00am 18.9 12.3 -16.0 8 11.8 NW 17 20 9 11 - - 0.0
21/09:30am 17.6 11.5 -13.2 11 10.8 NNW 15 20 8 11 - - 0.0
21/09:00am 16.7 10.6 -12.8 12 10.4 NNW 15 19 8 10 - - 0.2
21/08:30am 17.1 10.3 -20.7 6 11.4 NW 17 20 9 11 - - 0.2
21/08:00am 17.0 9.6 -28.4 3 11.8 NW 19 20 10 11 - - 0.2
21/07:30am 15.5 8.9 -26.4 4 11.0 NNW 15 20 8 11 - - 0.2
21/07:00am 14.9 8.7 -26.8 4 10.8 NNW 13 17 7 9 - - 0.2
21/06:30am 14.5 7.5 -27.1 4 10.6 N 17 20 9 11 - - 0.2
21/06:00am 14.3 - - - - N 17 19 9 10 - - 0.2
21/05:30am 15.4 8.7 -29.5 3 11.1 N 15 19 8 10 - - 0.2
21/05:00am 15.4 9.1 -29.5 3 11.1 N 13 15 7 8 - - 0.2
21/04:30am 12.6 6.5 -20.8 8 9.4 N 13 15 7 8 - - 0.2
21/04:00am 13.7 8.6 -25.2 5 10.1 NNE 7 9 4 5 - - 0.2
21/03:30am 13.2 8.1 -25.6 5 9.9 NE 7 9 4 5 - - 0.2
21/03:00am 14.6 9.6 -30.0 3 10.8 ESE 6 6 3 3 - - 0.2
21/02:30am 14.7 9.5 -30.0 3 10.8 ESE 7 9 4 5 - - 0.2
21/02:00am 14.5 9.0 -27.1 4 10.6 SE 9 11 5 6 - - 0.2
21/01:30am 14.5 9.0 -30.0 3 10.7 SE 9 13 5 7 - - 0.2
21/01:00am 14.0 8.1 -27.4 4 10.4 SSE 11 13 6 7 - - 0.2
21/12:30am 14.5 8.2 -30.0 3 10.7 SE 13 17 7 9 - - 0.2
21/12:00am 14.5 - - - - SE 13 17 7 9 - - 0.2
 
Date/Time
EDT
Temp
°C
App
Temp
°C
Dew
Point
Rel
Hum
%
Delta-T
°C
Wind Press
QNH
hPa
Press
MSL
hPa
Rain
since 9 am
mm
Dir
 
Spd
km/h
Gust
km/h
Spd
kts
Gust
kts
20/11:30pm 14.6 7.5 -30.0 3 10.8 SE 17 20 9 11 - - 0.2
20/11:00pm 13.6 5.6 -27.7 4 10.2 SE 22 26 12 14 - - 0.2
20/10:30pm 13.9 5.9 -27.5 4 10.3 SSE 22 28 12 15 - - 0.2
20/10:00pm 13.7 6.1 -27.6 4 10.3 SSE 20 26 11 14 - - 0.2
20/09:30pm 12.9 5.4 -22.0 7 9.6 SSE 20 26 11 14 - - 0.2
20/09:00pm 9.8 2.3 -4.9 35 5.7 SSE 26 30 14 16 - - 0.2
20/08:30pm 6.5 0.0 2.8 77 1.7 SSE 26 30 14 16 - - 0.2
20/08:00pm 6.5 0.6 3.8 83 1.2 S 24 28 13 15 - - 0.2
20/07:30pm 7.4 0.3 3.5 76 1.8 SSE 30 33 16 18 - - 0.2
20/07:00pm 8.7 1.0 2.5 65 2.8 SSE 32 35 17 19 - - 0.2
20/06:30pm 9.3 1.3 1.9 60 3.3 SSE 33 37 18 20 - - 0.2
20/06:00pm 10.2 2.4 1.6 55 3.9 SSE 32 37 17 20 - - 0.2
20/05:30pm 10.7 2.9 1.5 53 4.1 SSE 32 39 17 21 - - 0.2
20/05:00pm 11.0 3.0 1.8 53 4.2 SSE 33 43 18 23 - - 0.2
20/04:30pm 11.4 3.6 1.9 52 4.3 SSE 32 41 17 22 - - 0.2
20/04:00pm 11.9 5.0 2.4 52 4.4 SSE 28 37 15 20 - - 0.2
20/03:30pm 11.8 5.0 0.6 46 5.0 SSE 26 33 14 18 - - 0.2
20/03:00pm 11.6 5.2 1.0 48 4.8 SSE 24 33 13 18 - - 0.2
20/02:30pm 11.2 4.3 0.3 47 4.8 SSE 26 35 14 19 - - 0.2
20/02:00pm 10.9 4.6 1.7 53 4.2 SSE 24 35 13 19 - - 0.2
20/01:30pm 10.4 4.3 0.7 51 4.3 SSE 22 28 12 15 - - 0.2
20/01:00pm 9.7 4.1 1.4 56 3.7 SSE 20 30 11 16 - - 0.2
20/12:30pm 10.3 5.5 0.1 49 4.4 SSE 15 22 8 12 - - 0.2
20/12:00pm 11.0 6.8 1.5 52 4.3 SE 13 20 7 11 - - 0.2
20/11:30am 8.7 2.9 0.2 55 3.6 SE 20 26 11 14 - - 0.0
20/11:00am 10.6 4.7 -0.8 45 4.9 SE 20 28 11 15 - - 0.0
20/10:30am 8.4 0.3 -3.1 44 4.5 SE 30 33 16 18 - - 0.0
20/10:00am 5.7 -2.1 -0.8 63 2.6 SSE 30 41 16 22 - - 0.0
20/09:30am 3.9 -3.5 3.8 99 0.0 SSE 32 44 17 24 - - 0.0
20/09:00am 1.6 -8.3 1.5 99 0.0 SSE 43 52 23 28 - - 0.0
20/08:30am 1.3 -9.2 1.2 99 0.0 SSE 46 54 25 29 - - 0.0
20/08:00am 1.1 -9.9 1.0 99 0.0 SSE 48 59 26 32 - - 0.0
20/07:30am 1.0 -11.1 0.9 99 0.0 SSE 54 63 29 34 - - 0.0
20/07:00am 1.6 -9.7 1.5 99 0.0 SSE 50 65 27 35 - - 0.0
20/06:30am 1.0 -10.3 0.9 99 0.0 SSE 50 61 27 33 - - 0.0
20/06:00am 1.8 -9.4 1.7 99 0.0 SSE 50 63 27 34 - - 0.0
20/05:30am 1.7 -9.9 1.6 99 0.0 SSE 52 72 28 39 - - 0.0
20/05:23am 1.9 -9.7 1.8 99 0.0 SSE 52 72 28 39 - - 0.0
20/05:00am 1.8 -9.8 1.7 99 0.0 SSE 52 61 28 33 - - 0.0
20/04:30am 2.3 -9.2 2.2 99 0.0 SSE 52 63 28 34 - - 0.0
20/04:00am 2.4 -9.5 2.3 99 0.0 SSE 54 61 29 33 - - 0.0
20/03:30am 2.4 -9.1 2.3 99 0.0 SSE 52 61 28 33 - - 0.0
20/03:00am 3.0 -8.0 2.9 99 0.0 SSE 50 59 27 32 - - 0.0
20/02:30am 3.3 -8.4 3.2 99 0.0 SSE 54 67 29 36 - - 0.0
20/02:00am 4.0 -6.8 3.9 99 0.0 SSE 50 61 27 33 - - 0.0
20/01:30am 3.9 -7.3 3.8 99 0.0 SSE 52 65 28 35 - - 0.0
20/01:00am 4.1 -7.9 4.0 99 0.0 SSE 56 65 30 35 - - 0.0
20/12:30am 4.5 -5.9 4.4 99 0.0 S 48 61 26 33 - - 0.0
20/12:00am 4.7 -5.6 4.6 99 0.0 S 48 59 26 32 - - 0.0
 
Date/Time
EDT
Temp
°C
App
Temp
°C
Dew
Point
Rel
Hum
%
Delta-T
°C
Wind Press
QNH
hPa
Press
MSL
hPa
Rain
since 9 am
mm
Dir
 
Spd
km/h
Gust
km/h
Spd
kts
Gust
kts
19/11:30pm 4.9 -5.4 4.8 99 0.0 S 48 59 26 32 - - 0.0
19/11:00pm 5.1 -5.1 5.0 99 0.0 S 48 61 26 33 - - 0.0
19/10:30pm 5.3 -4.5 5.2 99 0.0 S 46 61 25 33 - - 0.0
19/10:00pm 5.3 -3.6 5.2 99 0.0 S 41 52 22 28 - - 0.0
19/09:36pm 5.2 -4.3 5.1 99 0.0 S 44 63 24 34 - - 0.0
19/09:30pm 4.9 -4.6 4.8 99 0.0 S 44 57 24 31 - - 0.0
19/09:03pm 6.5 -1.7 6.4 99 0.0 S 39 57 21 31 - - 0.0
19/09:00pm 6.6 -1.2 6.5 99 0.0 S 37 54 20 29 - - 0.0
19/08:47pm 6.8 -0.6 6.7 99 0.0 S 35 54 19 29 - - 0.0
19/08:30pm 7.7 1.6 6.8 94 0.4 S 28 39 15 21 - - 0.0
19/08:24pm 7.8 1.6 6.1 89 0.8 S 28 35 15 19 - - 0.0
19/08:00pm 12.8 5.3 1.5 46 5.2 SW 30 43 16 23 - - 0.0
19/07:30pm 11.9 4.2 5.3 64 3.3 SW 35 56 19 30 - - 0.0
19/07:14pm 12.0 5.8 6.3 68 2.9 SW 28 48 15 26 - - 0.0
19/07:00pm 12.7 8.4 7.0 68 2.9 SW 19 24 10 13 - - 0.0
19/06:30pm 14.7 11.7 7.5 62 3.8 WSW 13 20 7 11 - - 0.0
19/06:00pm 15.2 11.7 8.7 65 3.5 WSW 17 24 9 13 - - 0.0

Other Formats:

Comma delimited format used in spreadsheet applications
http://www.bom.gov.au/fwo/IDV60801/IDV60801.94833.axf

JavaScript Object Notation format (JSON) in row-major order
http://www.bom.gov.au/fwo/IDV60801/IDV60801.94833.json